sensor_id;sensor_type;location;lat;lon;timestamp;P1;durP1;ratioP1;P2;durP2;ratioP2
35667;SDS011;22158;59.280;17.806;2023-02-01T05:01:59;6.55;;;2.65;;
35667;SDS011;22158;59.280;17.806;2023-02-01T05:04:24;4.25;;;2.30;;
35667;SDS011;22158;59.280;17.806;2023-02-01T05:06:50;3.95;;;2.20;;
35667;SDS011;22158;59.280;17.806;2023-02-01T05:09:16;5.43;;;2.38;;
35667;SDS011;22158;59.280;17.806;2023-02-01T05:11:41;5.95;;;2.65;;
35667;SDS011;22158;59.280;17.806;2023-02-01T05:14:26;5.63;;;2.92;;
35667;SDS011;22158;59.280;17.806;2023-02-01T05:16:51;5.88;;;2.65;;
35667;SDS011;22158;59.280;17.806;2023-02-01T05:19:17;5.30;;;3.08;;
35667;SDS011;22158;59.280;17.806;2023-02-01T05:21:43;11.10;;;3.10;;
35667;SDS011;22158;59.280;17.806;2023-02-01T05:24:09;4.80;;;2.90;;
35667;SDS011;22158;59.280;17.806;2023-02-01T05:26:35;11.88;;;3.38;;
35667;SDS011;22158;59.280;17.806;2023-02-01T05:29:01;12.05;;;3.20;;
35667;SDS011;22158;59.280;17.806;2023-02-01T05:31:28;7.93;;;2.78;;
35667;SDS011;22158;59.280;17.806;2023-02-01T05:33:53;10.35;;;3.53;;
35667;SDS011;22158;59.280;17.806;2023-02-01T05:36:19;10.80;;;4.85;;
35667;SDS011;22158;59.280;17.806;2023-02-01T05:38:44;6.82;;;2.88;;
35667;SDS011;22158;59.280;17.806;2023-02-01T05:41:10;8.35;;;3.03;;
35667;SDS011;22158;59.280;17.806;2023-02-01T05:43:36;7.00;;;3.17;;
35667;SDS011;22158;59.280;17.806;2023-02-01T05:46:02;3.78;;;2.33;;
35667;SDS011;22158;59.280;17.806;2023-02-01T05:48:27;5.05;;;2.65;;
35667;SDS011;22158;59.280;17.806;2023-02-01T05:50:53;9.57;;;3.17;;
35667;SDS011;22158;59.280;17.806;2023-02-01T05:53:19;10.88;;;3.63;;
35667;SDS011;22158;59.280;17.806;2023-02-01T05:55:47;10.60;;;3.35;;
35667;SDS011;22158;59.280;17.806;2023-02-01T05:58:13;8.95;;;3.38;;
35667;SDS011;22158;59.280;17.806;2023-02-01T06:00:38;8.90;;;2.67;;
35667;SDS011;22158;59.280;17.806;2023-02-01T06:03:04;10.45;;;3.78;;
35667;SDS011;22158;59.280;17.806;2023-02-01T06:05:30;12.18;;;3.40;;
35667;SDS011;22158;59.280;17.806;2023-02-01T06:07:56;8.38;;;3.33;;
35667;SDS011;22158;59.280;17.806;2023-02-01T06:10:23;7.18;;;2.97;;
35667;SDS011;22158;59.280;17.806;2023-02-01T06:12:48;6.35;;;3.40;;
35667;SDS011;22158;59.280;17.806;2023-02-01T06:15:15;6.25;;;3.40;;
35667;SDS011;22158;59.280;17.806;2023-02-01T06:17:41;7.70;;;4.07;;
35667;SDS011;22158;59.280;17.806;2023-02-01T06:20:09;8.30;;;3.63;;
35667;SDS011;22158;59.280;17.806;2023-02-01T06:22:36;6.95;;;3.17;;
35667;SDS011;22158;59.280;17.806;2023-02-01T06:25:02;5.60;;;3.25;;
35667;SDS011;22158;59.280;17.806;2023-02-01T06:27:29;6.00;;;3.50;;
35667;SDS011;22158;59.280;17.806;2023-02-01T06:29:54;16.30;;;4.47;;
35667;SDS011;22158;59.280;17.806;2023-02-01T06:32:21;5.00;;;3.38;;
35667;SDS011;22158;59.280;17.806;2023-02-01T06:34:47;7.00;;;2.97;;
35667;SDS011;22158;59.280;17.806;2023-02-01T06:37:13;11.43;;;4.00;;
35667;SDS011;22158;59.280;17.806;2023-02-01T06:39:39;18.05;;;3.92;;
35667;SDS011;22158;59.280;17.806;2023-02-01T06:42:07;8.10;;;3.80;;
35667;SDS011;22158;59.280;17.806;2023-02-01T06:44:32;9.00;;;4.20;;
35667;SDS011;22158;59.280;17.806;2023-02-01T06:46:58;11.82;;;3.85;;
35667;SDS011;22158;59.280;17.806;2023-02-01T06:49:24;7.90;;;3.05;;
35667;SDS011;22158;59.280;17.806;2023-02-01T06:51:49;7.22;;;3.05;;
35667;SDS011;22158;59.280;17.806;2023-02-01T06:54:15;8.88;;;3.30;;
35667;SDS011;22158;59.280;17.806;2023-02-01T06:56:41;10.82;;;3.10;;
35667;SDS011;22158;59.280;17.806;2023-02-01T06:59:07;10.68;;;4.07;;
35667;SDS011;22158;59.280;17.806;2023-02-01T07:01:33;9.98;;;4.07;;
35667;SDS011;22158;59.280;17.806;2023-02-01T07:04:01;12.35;;;4.03;;
35667;SDS011;22158;59.280;17.806;2023-02-01T07:06:27;7.90;;;3.60;;
35667;SDS011;22158;59.280;17.806;2023-02-01T07:08:53;8.18;;;3.45;;
35667;SDS011;22158;59.280;17.806;2023-02-01T07:11:20;8.45;;;3.85;;
35667;SDS011;22158;59.280;17.806;2023-02-01T07:13:46;12.80;;;3.67;;
35667;SDS011;22158;59.280;17.806;2023-02-01T07:16:16;10.60;;;3.85;;
35667;SDS011;22158;59.280;17.806;2023-02-01T07:21:09;7.68;;;3.03;;
35667;SDS011;22158;59.280;17.806;2023-02-01T07:23:35;9.52;;;2.97;;
35667;SDS011;22158;59.280;17.806;2023-02-01T07:26:01;6.28;;;3.20;;
35667;SDS011;22158;59.280;17.806;2023-02-01T07:28:30;7.60;;;3.35;;
35667;SDS011;22158;59.280;17.806;2023-02-01T07:31:16;6.28;;;3.08;;
35667;SDS011;22158;59.280;17.806;2023-02-01T07:33:44;8.82;;;4.35;;
35667;SDS011;22158;59.280;17.806;2023-02-01T07:36:11;8.95;;;2.72;;
35667;SDS011;22158;59.280;17.806;2023-02-01T07:38:41;7.25;;;3.35;;
35667;SDS011;22158;59.280;17.806;2023-02-01T07:41:07;8.73;;;3.53;;
35667;SDS011;22158;59.280;17.806;2023-02-01T07:43:34;12.50;;;3.65;;
35667;SDS011;22158;59.280;17.806;2023-02-01T07:46:00;11.30;;;4.88;;
35667;SDS011;22158;59.280;17.806;2023-02-01T07:48:27;7.38;;;3.60;;
35667;SDS011;22158;59.280;17.806;2023-02-01T07:50:57;9.65;;;3.53;;
35667;SDS011;22158;59.280;17.806;2023-02-01T07:53:24;8.73;;;4.28;;
35667;SDS011;22158;59.280;17.806;2023-02-01T07:55:50;12.20;;;4.05;;
35667;SDS011;22158;59.280;17.806;2023-02-01T07:58:16;10.43;;;4.28;;
35667;SDS011;22158;59.280;17.806;2023-02-01T08:00:41;5.43;;;3.20;;
35667;SDS011;22158;59.280;17.806;2023-02-01T08:03:26;12.23;;;4.35;;
35667;SDS011;22158;59.280;17.806;2023-02-01T08:05:55;6.15;;;3.80;;
35667;SDS011;22158;59.280;17.806;2023-02-01T08:08:21;8.95;;;3.50;;
35667;SDS011;22158;59.280;17.806;2023-02-01T08:10:49;8.32;;;3.45;;
35667;SDS011;22158;59.280;17.806;2023-02-01T08:13:15;10.30;;;3.17;;
35667;SDS011;22158;59.280;17.806;2023-02-01T08:15:41;6.00;;;3.22;;
35667;SDS011;22158;59.280;17.806;2023-02-01T08:18:07;9.18;;;4.22;;
35667;SDS011;22158;59.280;17.806;2023-02-01T08:20:35;7.60;;;3.50;;
35667;SDS011;22158;59.280;17.806;2023-02-01T08:23:01;13.05;;;3.63;;
35667;SDS011;22158;59.280;17.806;2023-02-01T08:25:27;6.40;;;3.05;;
35667;SDS011;22158;59.280;17.806;2023-02-01T08:27:53;9.15;;;2.67;;
35667;SDS011;22158;59.280;17.806;2023-02-01T08:30:20;9.80;;;3.08;;
35667;SDS011;22158;59.280;17.806;2023-02-01T08:32:46;5.80;;;3.25;;
35667;SDS011;22158;59.280;17.806;2023-02-01T08:35:12;7.30;;;3.50;;
35667;SDS011;22158;59.280;17.806;2023-02-01T08:37:38;6.72;;;2.97;;
35667;SDS011;22158;59.280;17.806;2023-02-01T08:40:04;9.38;;;2.70;;
35667;SDS011;22158;59.280;17.806;2023-02-01T08:42:30;8.32;;;4.13;;
35667;SDS011;22158;59.280;17.806;2023-02-01T08:45:15;6.28;;;3.10;;
35667;SDS011;22158;59.280;17.806;2023-02-01T08:47:40;6.35;;;3.03;;
35667;SDS011;22158;59.280;17.806;2023-02-01T08:50:06;14.77;;;3.85;;
35667;SDS011;22158;59.280;17.806;2023-02-01T08:52:33;6.63;;;2.72;;
35667;SDS011;22158;59.280;17.806;2023-02-01T08:54:59;8.02;;;3.80;;
35667;SDS011;22158;59.280;17.806;2023-02-01T08:57:25;7.20;;;3.22;;
35667;SDS011;22158;59.280;17.806;2023-02-01T08:59:50;10.73;;;4.03;;
35667;SDS011;22158;59.280;17.806;2023-02-01T09:02:16;7.30;;;3.28;;
35667;SDS011;22158;59.280;17.806;2023-02-01T09:04:42;9.10;;;2.90;;
35667;SDS011;22158;59.280;17.806;2023-02-01T09:07:09;10.02;;;3.03;;
35667;SDS011;22158;59.280;17.806;2023-02-01T09:09:35;10.75;;;3.00;;
35667;SDS011;22158;59.280;17.806;2023-02-01T09:12:03;8.25;;;3.33;;
35667;SDS011;22158;59.280;17.806;2023-02-01T09:14:29;8.82;;;3.60;;
35667;SDS011;22158;59.280;17.806;2023-02-01T09:16:55;5.93;;;2.60;;
35667;SDS011;22158;59.280;17.806;2023-02-01T09:19:21;7.32;;;3.10;;
35667;SDS011;22158;59.280;17.806;2023-02-01T09:21:46;8.13;;;3.83;;
35667;SDS011;22158;59.280;17.806;2023-02-01T09:24:12;10.95;;;3.55;;
35667;SDS011;22158;59.280;17.806;2023-02-01T09:26:38;6.65;;;3.08;;
35667;SDS011;22158;59.280;17.806;2023-02-01T09:29:04;10.68;;;3.58;;
35667;SDS011;22158;59.280;17.806;2023-02-01T09:31:35;7.47;;;3.17;;
35667;SDS011;22158;59.280;17.806;2023-02-01T09:34:01;9.93;;;3.58;;
35667;SDS011;22158;59.280;17.806;2023-02-01T09:36:27;8.80;;;3.45;;
35667;SDS011;22158;59.280;17.806;2023-02-01T09:38:53;10.15;;;3.50;;
35667;SDS011;22158;59.280;17.806;2023-02-01T09:47:22;10.75;;;3.13;;
35667;SDS011;22158;59.280;17.806;2023-02-01T09:52:29;7.68;;;2.88;;
35667;SDS011;22158;59.280;17.806;2023-02-01T09:55:09;14.27;;;4.10;;
35667;SDS011;22158;59.280;17.806;2023-02-01T09:57:45;11.00;;;3.22;;
35667;SDS011;22158;59.280;17.806;2023-02-01T10:00:27;8.55;;;3.88;;
35667;SDS011;22158;59.280;17.806;2023-02-01T10:02:58;5.32;;;3.63;;
35667;SDS011;22158;59.280;17.806;2023-02-01T10:14:36;14.40;;;3.50;;
35667;SDS011;22158;59.280;17.806;2023-02-01T10:20:22;10.52;;;3.80;;
35667;SDS011;22158;59.280;17.806;2023-02-01T10:23:18;6.20;;;3.13;;
35667;SDS011;22158;59.280;17.806;2023-02-01T10:26:21;13.50;;;6.40;;
35667;SDS011;22158;59.280;17.806;2023-02-01T10:28:56;11.82;;;3.92;;
35667;SDS011;22158;59.280;17.806;2023-02-01T10:31:28;10.90;;;3.25;;
35667;SDS011;22158;59.280;17.806;2023-02-01T10:33:59;7.38;;;3.22;;
35667;SDS011;22158;59.280;17.806;2023-02-01T10:39:15;10.43;;;5.25;;
35667;SDS011;22158;59.280;17.806;2023-02-01T10:41:41;11.73;;;4.18;;
35667;SDS011;22158;59.280;17.806;2023-02-01T10:44:11;7.38;;;3.92;;
35667;SDS011;22158;59.280;17.806;2023-02-01T10:46:40;8.30;;;3.75;;
35667;SDS011;22158;59.280;17.806;2023-02-01T10:49:11;8.68;;;3.55;;
35667;SDS011;22158;59.280;17.806;2023-02-01T10:51:53;8.88;;;3.25;;
35667;SDS011;22158;59.280;17.806;2023-02-01T10:54:34;8.15;;;3.35;;
35667;SDS011;22158;59.280;17.806;2023-02-01T10:57:03;11.35;;;4.05;;
35667;SDS011;22158;59.280;17.806;2023-02-01T10:59:33;9.07;;;3.33;;
35667;SDS011;22158;59.280;17.806;2023-02-01T11:02:02;9.55;;;3.65;;
35667;SDS011;22158;59.280;17.806;2023-02-01T11:04:40;10.20;;;2.90;;
35667;SDS011;22158;59.280;17.806;2023-02-01T11:09:49;10.50;;;4.05;;
35667;SDS011;22158;59.280;17.806;2023-02-01T11:12:23;8.68;;;3.00;;
35667;SDS011;22158;59.280;17.806;2023-02-01T11:17:39;8.32;;;3.00;;
35667;SDS011;22158;59.280;17.806;2023-02-01T11:20:15;7.03;;;2.90;;
35667;SDS011;22158;59.280;17.806;2023-02-01T11:23:01;7.00;;;3.13;;
35667;SDS011;22158;59.280;17.806;2023-02-01T11:25:27;6.43;;;3.13;;
35667;SDS011;22158;59.280;17.806;2023-02-01T11:27:54;5.72;;;3.13;;
35667;SDS011;22158;59.280;17.806;2023-02-01T11:30:40;9.50;;;3.83;;
35667;SDS011;22158;59.280;17.806;2023-02-01T11:33:12;7.90;;;3.90;;
35667;SDS011;22158;59.280;17.806;2023-02-01T11:35:41;7.47;;;3.53;;
35667;SDS011;22158;59.280;17.806;2023-02-01T11:38:15;7.15;;;5.20;;
35667;SDS011;22158;59.280;17.806;2023-02-01T11:41:19;11.10;;;4.38;;
35667;SDS011;22158;59.280;17.806;2023-02-01T11:43:52;9.02;;;3.83;;
35667;SDS011;22158;59.280;17.806;2023-02-01T11:46:22;9.45;;;3.58;;
35667;SDS011;22158;59.280;17.806;2023-02-01T11:48:52;7.03;;;3.50;;
35667;SDS011;22158;59.280;17.806;2023-02-01T11:56:51;7.95;;;4.50;;
35667;SDS011;22158;59.280;17.806;2023-02-01T12:00:18;12.60;;;4.20;;
35667;SDS011;22158;59.280;17.806;2023-02-01T12:15:32;7.22;;;4.03;;
35667;SDS011;22158;59.280;17.806;2023-02-01T12:31:57;8.57;;;3.83;;
35667;SDS011;22158;59.280;17.806;2023-02-01T12:43:22;7.97;;;3.97;;
35667;SDS011;22158;59.280;17.806;2023-02-01T12:45:56;8.32;;;3.58;;
35667;SDS011;22158;59.280;17.806;2023-02-01T12:51:29;6.25;;;3.75;;
35667;SDS011;22158;59.280;17.806;2023-02-01T12:56:44;12.38;;;4.05;;
35667;SDS011;22158;59.280;17.806;2023-02-01T12:59:17;9.98;;;4.68;;
35667;SDS011;22158;59.280;17.806;2023-02-01T13:01:53;8.73;;;4.93;;
35667;SDS011;22158;59.280;17.806;2023-02-01T13:07:18;6.65;;;4.22;;
35667;SDS011;22158;59.280;17.806;2023-02-01T13:12:54;11.82;;;5.43;;
35667;SDS011;22158;59.280;17.806;2023-02-01T13:15:38;6.55;;;4.15;;
35667;SDS011;22158;59.280;17.806;2023-02-01T13:18:08;8.13;;;4.43;;
35667;SDS011;22158;59.280;17.806;2023-02-01T13:20:49;9.98;;;5.22;;
35667;SDS011;22158;59.280;17.806;2023-02-01T13:23:30;9.80;;;4.10;;
35667;SDS011;22158;59.280;17.806;2023-02-01T13:25:59;10.45;;;4.70;;
35667;SDS011;22158;59.280;17.806;2023-02-01T13:36:30;10.23;;;5.18;;
35667;SDS011;22158;59.280;17.806;2023-02-01T13:41:39;10.70;;;5.57;;
35667;SDS011;22158;59.280;17.806;2023-02-01T13:44:36;7.60;;;4.38;;
35667;SDS011;22158;59.280;17.806;2023-02-01T13:49:49;7.07;;;4.25;;
35667;SDS011;22158;59.280;17.806;2023-02-01T13:57:46;11.07;;;4.20;;
35667;SDS011;22158;59.280;17.806;2023-02-01T14:00:30;7.03;;;4.10;;
35667;SDS011;22158;59.280;17.806;2023-02-01T14:13:38;10.80;;;4.40;;
35667;SDS011;22158;59.280;17.806;2023-02-01T14:23:43;7.95;;;3.78;;
35667;SDS011;22158;59.280;17.806;2023-02-01T14:33:57;6.40;;;4.00;;
35667;SDS011;22158;59.280;17.806;2023-02-01T14:36:35;13.32;;;3.05;;
35667;SDS011;22158;59.280;17.806;2023-02-01T14:42:15;6.70;;;2.72;;
35667;SDS011;22158;59.280;17.806;2023-02-01T14:44:47;11.07;;;3.40;;
35667;SDS011;22158;59.280;17.806;2023-02-01T14:49:55;3.92;;;2.55;;
35667;SDS011;22158;59.280;17.806;2023-02-01T14:52:46;6.82;;;3.00;;
35667;SDS011;22158;59.280;17.806;2023-02-01T14:55:17;5.90;;;2.80;;
35667;SDS011;22158;59.280;17.806;2023-02-01T14:57:52;6.25;;;3.25;;
35667;SDS011;22158;59.280;17.806;2023-02-01T15:00:25;7.25;;;3.45;;
35667;SDS011;22158;59.280;17.806;2023-02-01T15:02:54;7.32;;;3.45;;
35667;SDS011;22158;59.280;17.806;2023-02-01T15:05:40;6.35;;;3.40;;
35667;SDS011;22158;59.280;17.806;2023-02-01T15:08:16;6.68;;;2.97;;
35667;SDS011;22158;59.280;17.806;2023-02-01T15:10:46;7.60;;;3.55;;
35667;SDS011;22158;59.280;17.806;2023-02-01T15:13:27;6.03;;;2.80;;
35667;SDS011;22158;59.280;17.806;2023-02-01T15:16:00;5.10;;;2.83;;
35667;SDS011;22158;59.280;17.806;2023-02-01T15:18:29;4.95;;;2.92;;
35667;SDS011;22158;59.280;17.806;2023-02-01T15:20:56;6.47;;;2.40;;
35667;SDS011;22158;59.280;17.806;2023-02-01T15:23:24;2.72;;;2.13;;
35667;SDS011;22158;59.280;17.806;2023-02-01T15:25:49;8.13;;;2.13;;
35667;SDS011;22158;59.280;17.806;2023-02-01T15:28:17;5.10;;;1.85;;
35667;SDS011;22158;59.280;17.806;2023-02-01T15:30:57;4.63;;;2.00;;
35667;SDS011;22158;59.280;17.806;2023-02-01T15:33:25;7.05;;;2.55;;
35667;SDS011;22158;59.280;17.806;2023-02-01T15:36:17;4.03;;;1.70;;
35667;SDS011;22158;59.280;17.806;2023-02-01T15:38:43;4.63;;;1.50;;
35667;SDS011;22158;59.280;17.806;2023-02-01T15:46:22;5.63;;;1.92;;
35667;SDS011;22158;59.280;17.806;2023-02-01T15:48:56;3.20;;;1.52;;
35667;SDS011;22158;59.280;17.806;2023-02-01T15:51:30;2.08;;;1.70;;
35667;SDS011;22158;59.280;17.806;2023-02-01T15:54:00;4.28;;;1.73;;
35667;SDS011;22158;59.280;17.806;2023-02-01T15:56:35;7.95;;;1.85;;
35667;SDS011;22158;59.280;17.806;2023-02-01T15:59:04;3.70;;;2.03;;
35667;SDS011;22158;59.280;17.806;2023-02-01T16:01:37;7.18;;;2.05;;
35667;SDS011;22158;59.280;17.806;2023-02-01T16:04:25;6.82;;;1.98;;
35667;SDS011;22158;59.280;17.806;2023-02-01T16:06:51;7.07;;;1.65;;
35667;SDS011;22158;59.280;17.806;2023-02-01T16:09:20;5.53;;;1.85;;
35667;SDS011;22158;59.280;17.806;2023-02-01T16:11:54;5.90;;;1.60;;
35667;SDS011;22158;59.280;17.806;2023-02-01T16:14:23;11.50;;;2.00;;
35667;SDS011;22158;59.280;17.806;2023-02-01T16:16:49;24.20;;;3.47;;
35667;SDS011;22158;59.280;17.806;2023-02-01T16:19:15;5.10;;;1.73;;
35667;SDS011;22158;59.280;17.806;2023-02-01T16:21:41;8.45;;;1.88;;
35667;SDS011;22158;59.280;17.806;2023-02-01T16:24:07;3.60;;;1.35;;
35667;SDS011;22158;59.280;17.806;2023-02-01T16:26:33;3.42;;;1.90;;
35667;SDS011;22158;59.280;17.806;2023-02-01T16:28:59;3.42;;;1.80;;
35667;SDS011;22158;59.280;17.806;2023-02-01T16:31:29;3.90;;;1.90;;
35667;SDS011;22158;59.280;17.806;2023-02-01T16:33:56;2.97;;;1.73;;
35667;SDS011;22158;59.280;17.806;2023-02-01T16:36:22;4.07;;;2.10;;
35667;SDS011;22158;59.280;17.806;2023-02-01T16:38:49;5.35;;;1.70;;
35667;SDS011;22158;59.280;17.806;2023-02-01T16:41:16;4.65;;;2.15;;
35667;SDS011;22158;59.280;17.806;2023-02-01T16:43:43;6.70;;;2.63;;
35667;SDS011;22158;59.280;17.806;2023-02-01T16:46:13;5.28;;;2.03;;
35667;SDS011;22158;59.280;17.806;2023-02-01T16:48:41;3.08;;;1.60;;
35667;SDS011;22158;59.280;17.806;2023-02-01T16:51:11;5.43;;;1.98;;
35667;SDS011;22158;59.280;17.806;2023-02-01T16:53:39;2.47;;;1.73;;
35667;SDS011;22158;59.280;17.806;2023-02-01T16:56:18;6.18;;;2.35;;
35667;SDS011;22158;59.280;17.806;2023-02-01T16:58:48;3.78;;;2.13;;
35667;SDS011;22158;59.280;17.806;2023-02-01T17:01:14;10.25;;;2.40;;
35667;SDS011;22158;59.280;17.806;2023-02-01T17:03:42;5.00;;;1.60;;
35667;SDS011;22158;59.280;17.806;2023-02-01T17:06:11;4.03;;;2.10;;
35667;SDS011;22158;59.280;17.806;2023-02-01T17:08:43;4.13;;;2.03;;
35667;SDS011;22158;59.280;17.806;2023-02-01T17:11:12;4.57;;;2.00;;
35667;SDS011;22158;59.280;17.806;2023-02-01T17:13:38;5.72;;;2.47;;
35667;SDS011;22158;59.280;17.806;2023-02-01T17:16:12;4.07;;;2.40;;
35667;SDS011;22158;59.280;17.806;2023-02-01T17:18:44;4.63;;;2.78;;
35667;SDS011;22158;59.280;17.806;2023-02-01T17:21:14;12.60;;;6.13;;
35667;SDS011;22158;59.280;17.806;2023-02-01T17:23:39;6.85;;;3.40;;
35667;SDS011;22158;59.280;17.806;2023-02-01T17:26:08;6.20;;;3.45;;
35667;SDS011;22158;59.280;17.806;2023-02-01T17:28:34;5.80;;;2.40;;
35667;SDS011;22158;59.280;17.806;2023-02-01T17:31:00;5.50;;;2.30;;
35667;SDS011;22158;59.280;17.806;2023-02-01T17:33:31;5.00;;;2.00;;
35667;SDS011;22158;59.280;17.806;2023-02-01T17:36:01;4.68;;;2.00;;
35667;SDS011;22158;59.280;17.806;2023-02-01T17:38:28;2.83;;;2.15;;
35667;SDS011;22158;59.280;17.806;2023-02-01T17:40:54;6.10;;;2.47;;
35667;SDS011;22158;59.280;17.806;2023-02-01T17:43:24;3.25;;;2.03;;
35667;SDS011;22158;59.280;17.806;2023-02-01T17:48:21;4.40;;;2.38;;
35667;SDS011;22158;59.280;17.806;2023-02-01T17:50:48;7.70;;;3.58;;
35667;SDS011;22158;59.280;17.806;2023-02-01T17:53:18;4.78;;;2.47;;
35667;SDS011;22158;59.280;17.806;2023-02-01T17:55:48;9.02;;;2.38;;
35667;SDS011;22158;59.280;17.806;2023-02-01T17:58:15;10.65;;;3.42;;
35667;SDS011;22158;59.280;17.806;2023-02-01T18:00:42;8.95;;;3.00;;
35667;SDS011;22158;59.280;17.806;2023-02-01T18:03:17;6.65;;;3.00;;
35667;SDS011;22158;59.280;17.806;2023-02-01T18:05:47;4.95;;;2.63;;
35667;SDS011;22158;59.280;17.806;2023-02-01T18:08:16;11.25;;;3.58;;
35667;SDS011;22158;59.280;17.806;2023-02-01T18:10:42;5.97;;;2.63;;
35667;SDS011;22158;59.280;17.806;2023-02-01T18:13:09;5.25;;;2.50;;
35667;SDS011;22158;59.280;17.806;2023-02-01T18:15:36;7.35;;;2.80;;
35667;SDS011;22158;59.280;17.806;2023-02-01T18:18:04;8.43;;;3.00;;
35667;SDS011;22158;59.280;17.806;2023-02-01T18:20:30;4.18;;;2.85;;
35667;SDS011;22158;59.280;17.806;2023-02-01T18:22:55;4.80;;;2.45;;
35667;SDS011;22158;59.280;17.806;2023-02-01T18:25:22;6.15;;;2.92;;
35667;SDS011;22158;59.280;17.806;2023-02-01T18:27:49;7.68;;;2.38;;
35667;SDS011;22158;59.280;17.806;2023-02-01T18:30:19;4.15;;;2.40;;
35667;SDS011;22158;59.280;17.806;2023-02-01T18:32:47;4.70;;;2.40;;
35667;SDS011;22158;59.280;17.806;2023-02-01T18:35:20;2.92;;;2.42;;
35667;SDS011;22158;59.280;17.806;2023-02-01T18:37:51;6.55;;;2.22;;
35667;SDS011;22158;59.280;17.806;2023-02-01T18:40:26;4.75;;;2.72;;
35667;SDS011;22158;59.280;17.806;2023-02-01T18:42:54;6.38;;;2.42;;
35667;SDS011;22158;59.280;17.806;2023-02-01T18:47:57;6.38;;;1.90;;
35667;SDS011;22158;59.280;17.806;2023-02-01T18:50:24;3.70;;;2.20;;
35667;SDS011;22158;59.280;17.806;2023-02-01T18:52:57;4.20;;;2.45;;
35667;SDS011;22158;59.280;17.806;2023-02-01T18:55:25;5.05;;;2.00;;
35667;SDS011;22158;59.280;17.806;2023-02-01T18:57:51;6.82;;;2.17;;
35667;SDS011;22158;59.280;17.806;2023-02-01T19:00:18;8.57;;;2.28;;
35667;SDS011;22158;59.280;17.806;2023-02-01T19:02:45;5.40;;;1.80;;
35667;SDS011;22158;59.280;17.806;2023-02-01T19:05:11;4.72;;;2.05;;
35667;SDS011;22158;59.280;17.806;2023-02-01T19:07:38;3.80;;;1.75;;
35667;SDS011;22158;59.280;17.806;2023-02-01T19:10:08;11.82;;;2.35;;
35667;SDS011;22158;59.280;17.806;2023-02-01T19:12:37;7.55;;;2.40;;
35667;SDS011;22158;59.280;17.806;2023-02-01T19:15:03;4.43;;;1.60;;
35667;SDS011;22158;59.280;17.806;2023-02-01T19:17:31;4.88;;;2.00;;
35667;SDS011;22158;59.280;17.806;2023-02-01T19:19:56;3.97;;;2.35;;
35667;SDS011;22158;59.280;17.806;2023-02-01T19:22:23;6.30;;;2.47;;
35667;SDS011;22158;59.280;17.806;2023-02-01T19:24:49;5.43;;;2.35;;
35667;SDS011;22158;59.280;17.806;2023-02-01T19:27:15;4.93;;;2.45;;
35667;SDS011;22158;59.280;17.806;2023-02-01T19:29:41;7.47;;;3.30;;
35667;SDS011;22158;59.280;17.806;2023-02-01T19:32:10;6.28;;;2.00;;
35667;SDS011;22158;59.280;17.806;2023-02-01T19:34:36;3.35;;;1.73;;
35667;SDS011;22158;59.280;17.806;2023-02-01T19:37:03;3.15;;;1.95;;
35667;SDS011;22158;59.280;17.806;2023-02-01T19:39:32;5.93;;;2.40;;
35667;SDS011;22158;59.280;17.806;2023-02-01T19:41:58;8.45;;;2.72;;
35667;SDS011;22158;59.280;17.806;2023-02-01T19:44:24;5.80;;;2.63;;
35667;SDS011;22158;59.280;17.806;2023-02-01T19:46:54;7.78;;;2.63;;
35667;SDS011;22158;59.280;17.806;2023-02-01T19:49:20;3.60;;;1.80;;
35667;SDS011;22158;59.280;17.806;2023-02-01T19:51:46;2.97;;;1.88;;
35667;SDS011;22158;59.280;17.806;2023-02-01T19:54:12;3.55;;;2.10;;
35667;SDS011;22158;59.280;17.806;2023-02-01T19:56:39;3.58;;;2.20;;
35667;SDS011;22158;59.280;17.806;2023-02-01T19:59:05;4.35;;;2.00;;
35667;SDS011;22158;59.280;17.806;2023-02-01T20:01:32;6.70;;;2.35;;
35667;SDS011;22158;59.280;17.806;2023-02-01T20:03:58;4.70;;;2.35;;
35667;SDS011;22158;59.280;17.806;2023-02-01T20:06:31;3.35;;;1.85;;
35667;SDS011;22158;59.280;17.806;2023-02-01T20:09:01;3.83;;;2.05;;
35667;SDS011;22158;59.280;17.806;2023-02-01T20:11:28;6.45;;;2.10;;
35667;SDS011;22158;59.280;17.806;2023-02-01T20:13:54;4.55;;;2.30;;
35667;SDS011;22158;59.280;17.806;2023-02-01T20:16:21;10.02;;;3.28;;
35667;SDS011;22158;59.280;17.806;2023-02-01T20:18:47;3.33;;;2.08;;
35667;SDS011;22158;59.280;17.806;2023-02-01T20:21:14;4.75;;;2.38;;
35667;SDS011;22158;59.280;17.806;2023-02-01T20:23:40;3.50;;;1.90;;
35667;SDS011;22158;59.280;17.806;2023-02-01T20:26:07;3.25;;;2.28;;
35667;SDS011;22158;59.280;17.806;2023-02-01T20:28:35;4.63;;;1.95;;
35667;SDS011;22158;59.280;17.806;2023-02-01T20:31:02;4.50;;;2.05;;
35667;SDS011;22158;59.280;17.806;2023-02-01T20:33:28;6.25;;;2.63;;
35667;SDS011;22158;59.280;17.806;2023-02-01T20:35:54;4.20;;;1.77;;
35667;SDS011;22158;59.280;17.806;2023-02-01T20:38:22;6.65;;;2.42;;
35667;SDS011;22158;59.280;17.806;2023-02-01T20:40:48;4.43;;;2.42;;
35667;SDS011;22158;59.280;17.806;2023-02-01T20:43:14;4.97;;;2.05;;
35667;SDS011;22158;59.280;17.806;2023-02-01T20:45:40;3.47;;;1.67;;
35667;SDS011;22158;59.280;17.806;2023-02-01T20:48:07;6.07;;;2.28;;
35667;SDS011;22158;59.280;17.806;2023-02-01T20:50:34;4.40;;;2.72;;
35667;SDS011;22158;59.280;17.806;2023-02-01T20:53:00;3.97;;;2.25;;
35667;SDS011;22158;59.280;17.806;2023-02-01T20:55:26;3.67;;;2.13;;
35667;SDS011;22158;59.280;17.806;2023-02-01T20:57:52;5.60;;;2.30;;
35667;SDS011;22158;59.280;17.806;2023-02-01T21:00:18;5.47;;;1.83;;
35667;SDS011;22158;59.280;17.806;2023-02-01T21:02:46;5.45;;;2.22;;
35667;SDS011;22158;59.280;17.806;2023-02-01T21:05:12;5.10;;;2.03;;
35667;SDS011;22158;59.280;17.806;2023-02-01T21:07:39;7.68;;;2.22;;
35667;SDS011;22158;59.280;17.806;2023-02-01T21:10:05;2.80;;;1.80;;
35667;SDS011;22158;59.280;17.806;2023-02-01T21:12:32;4.47;;;2.15;;
35667;SDS011;22158;59.280;17.806;2023-02-01T21:14:58;3.35;;;2.10;;
35667;SDS011;22158;59.280;17.806;2023-02-01T21:17:24;3.88;;;1.77;;
35667;SDS011;22158;59.280;17.806;2023-02-01T21:19:52;5.80;;;2.28;;
35667;SDS011;22158;59.280;17.806;2023-02-01T21:22:18;2.92;;;1.70;;
35667;SDS011;22158;59.280;17.806;2023-02-01T21:24:44;5.03;;;2.33;;
35667;SDS011;22158;59.280;17.806;2023-02-01T21:27:10;2.97;;;1.85;;
35667;SDS011;22158;59.280;17.806;2023-02-01T21:29:36;5.05;;;2.35;;
35667;SDS011;22158;59.280;17.806;2023-02-01T21:32:02;6.43;;;2.13;;
35667;SDS011;22158;59.280;17.806;2023-02-01T21:34:29;4.30;;;2.40;;
35667;SDS011;22158;59.280;17.806;2023-02-01T21:36:55;4.07;;;1.67;;
35667;SDS011;22158;59.280;17.806;2023-02-01T21:39:20;6.18;;;1.80;;
35667;SDS011;22158;59.280;17.806;2023-02-01T21:41:46;4.50;;;1.63;;
35667;SDS011;22158;59.280;17.806;2023-02-01T21:44:30;3.33;;;1.90;;
35667;SDS011;22158;59.280;17.806;2023-02-01T21:46:56;2.85;;;1.55;;
35667;SDS011;22158;59.280;17.806;2023-02-01T21:49:22;3.85;;;1.50;;
35667;SDS011;22158;59.280;17.806;2023-02-01T21:51:52;6.55;;;1.95;;
35667;SDS011;22158;59.280;17.806;2023-02-01T21:54:21;3.13;;;1.77;;
35667;SDS011;22158;59.280;17.806;2023-02-01T21:56:47;5.28;;;2.00;;
35667;SDS011;22158;59.280;17.806;2023-02-01T21:59:12;3.63;;;1.83;;
35667;SDS011;22158;59.280;17.806;2023-02-01T22:01:39;5.03;;;2.00;;
35667;SDS011;22158;59.280;17.806;2023-02-01T22:04:05;6.63;;;1.90;;
35667;SDS011;22158;59.280;17.806;2023-02-01T22:06:32;2.25;;;1.60;;
35667;SDS011;22158;59.280;17.806;2023-02-01T22:08:59;4.80;;;1.80;;
35667;SDS011;22158;59.280;17.806;2023-02-01T22:11:26;2.65;;;1.25;;